sensor_id;sensor_type;location;lat;lon;timestamp;P1;durP1;ratioP1;P2;durP2;ratioP2
54167;SDS011;40072;50.958;3.592;2022-07-04T00:00:02;13.38;;;3.22;;
54167;SDS011;40072;50.958;3.592;2022-07-04T00:02:31;10.23;;;2.70;;
54167;SDS011;40072;50.958;3.592;2022-07-04T00:04:57;7.80;;;2.38;;
54167;SDS011;40072;50.958;3.592;2022-07-04T00:07:23;6.38;;;2.90;;
54167;SDS011;40072;50.958;3.592;2022-07-04T00:09:49;5.88;;;2.53;;
54167;SDS011;40072;50.958;3.592;2022-07-04T00:12:14;4.80;;;2.58;;
54167;SDS011;40072;50.958;3.592;2022-07-04T00:14:40;5.97;;;2.42;;
54167;SDS011;40072;50.958;3.592;2022-07-04T00:17:06;9.25;;;1.92;;
54167;SDS011;40072;50.958;3.592;2022-07-04T00:19:31;8.45;;;2.30;;
54167;SDS011;40072;50.958;3.592;2022-07-04T00:21:57;7.72;;;2.38;;
54167;SDS011;40072;50.958;3.592;2022-07-04T00:24:23;7.07;;;2.33;;
54167;SDS011;40072;50.958;3.592;2022-07-04T00:26:49;5.15;;;1.92;;
54167;SDS011;40072;50.958;3.592;2022-07-04T00:29:14;7.82;;;2.38;;
54167;SDS011;40072;50.958;3.592;2022-07-04T00:31:40;5.65;;;1.88;;
54167;SDS011;40072;50.958;3.592;2022-07-04T00:34:06;5.70;;;2.08;;
54167;SDS011;40072;50.958;3.592;2022-07-04T00:36:32;6.30;;;2.00;;
54167;SDS011;40072;50.958;3.592;2022-07-04T00:38:57;7.93;;;2.50;;
54167;SDS011;40072;50.958;3.592;2022-07-04T00:41:23;6.85;;;2.05;;
54167;SDS011;40072;50.958;3.592;2022-07-04T00:44:05;4.05;;;2.22;;
54167;SDS011;40072;50.958;3.592;2022-07-04T00:46:32;9.10;;;2.55;;
54167;SDS011;40072;50.958;3.592;2022-07-04T00:48:58;6.65;;;2.30;;
54167;SDS011;40072;50.958;3.592;2022-07-04T00:51:23;6.60;;;2.38;;
54167;SDS011;40072;50.958;3.592;2022-07-04T00:53:50;5.78;;;1.83;;
54167;SDS011;40072;50.958;3.592;2022-07-04T00:56:18;5.82;;;2.08;;
54167;SDS011;40072;50.958;3.592;2022-07-04T00:58:45;2.90;;;1.65;;
54167;SDS011;40072;50.958;3.592;2022-07-04T01:01:10;6.80;;;2.00;;
54167;SDS011;40072;50.958;3.592;2022-07-04T01:03:36;7.60;;;2.35;;
54167;SDS011;40072;50.958;3.592;2022-07-04T01:06:02;8.60;;;2.17;;
54167;SDS011;40072;50.958;3.592;2022-07-04T01:08:28;6.65;;;2.20;;
54167;SDS011;40072;50.958;3.592;2022-07-04T01:10:54;5.28;;;1.83;;
54167;SDS011;40072;50.958;3.592;2022-07-04T01:13:20;8.38;;;2.22;;
54167;SDS011;40072;50.958;3.592;2022-07-04T01:15:47;7.18;;;2.42;;
54167;SDS011;40072;50.958;3.592;2022-07-04T01:18:12;7.88;;;2.35;;
54167;SDS011;40072;50.958;3.592;2022-07-04T01:20:38;6.35;;;2.20;;
54167;SDS011;40072;50.958;3.592;2022-07-04T01:23:04;7.10;;;2.10;;
54167;SDS011;40072;50.958;3.592;2022-07-04T01:25:30;4.65;;;2.03;;
54167;SDS011;40072;50.958;3.592;2022-07-04T01:27:57;4.75;;;1.80;;
54167;SDS011;40072;50.958;3.592;2022-07-04T01:30:28;10.13;;;2.42;;
54167;SDS011;40072;50.958;3.592;2022-07-04T01:32:54;6.05;;;2.17;;
54167;SDS011;40072;50.958;3.592;2022-07-04T01:35:20;7.30;;;2.17;;
54167;SDS011;40072;50.958;3.592;2022-07-04T01:37:46;7.35;;;2.05;;
54167;SDS011;40072;50.958;3.592;2022-07-04T01:40:12;6.57;;;2.47;;
54167;SDS011;40072;50.958;3.592;2022-07-04T01:42:38;6.78;;;2.20;;
54167;SDS011;40072;50.958;3.592;2022-07-04T01:45:05;5.55;;;2.20;;
54167;SDS011;40072;50.958;3.592;2022-07-04T01:47:32;8.40;;;2.30;;
54167;SDS011;40072;50.958;3.592;2022-07-04T01:49:58;12.73;;;2.40;;
54167;SDS011;40072;50.958;3.592;2022-07-04T01:52:23;9.80;;;2.67;;
54167;SDS011;40072;50.958;3.592;2022-07-04T01:54:49;6.95;;;2.20;;
54167;SDS011;40072;50.958;3.592;2022-07-04T01:57:15;7.82;;;2.25;;
54167;SDS011;40072;50.958;3.592;2022-07-04T01:59:40;5.15;;;1.98;;
54167;SDS011;40072;50.958;3.592;2022-07-04T02:02:32;8.38;;;2.50;;
54167;SDS011;40072;50.958;3.592;2022-07-04T02:04:58;6.93;;;2.10;;
54167;SDS011;40072;50.958;3.592;2022-07-04T02:07:23;7.25;;;2.22;;
54167;SDS011;40072;50.958;3.592;2022-07-04T02:09:49;3.25;;;1.80;;
54167;SDS011;40072;50.958;3.592;2022-07-04T02:12:15;4.40;;;2.28;;
54167;SDS011;40072;50.958;3.592;2022-07-04T02:14:59;5.63;;;2.60;;
54167;SDS011;40072;50.958;3.592;2022-07-04T02:17:25;10.07;;;2.70;;
54167;SDS011;40072;50.958;3.592;2022-07-04T02:19:50;7.63;;;2.72;;
54167;SDS011;40072;50.958;3.592;2022-07-04T02:22:16;5.40;;;2.78;;
54167;SDS011;40072;50.958;3.592;2022-07-04T02:24:42;3.75;;;2.35;;
54167;SDS011;40072;50.958;3.592;2022-07-04T02:27:08;9.63;;;3.17;;
54167;SDS011;40072;50.958;3.592;2022-07-04T02:29:33;9.13;;;2.70;;
54167;SDS011;40072;50.958;3.592;2022-07-04T02:31:59;7.20;;;2.83;;
54167;SDS011;40072;50.958;3.592;2022-07-04T02:34:25;9.90;;;3.20;;
54167;SDS011;40072;50.958;3.592;2022-07-04T02:36:51;12.30;;;3.13;;
54167;SDS011;40072;50.958;3.592;2022-07-04T02:39:17;6.97;;;2.95;;
54167;SDS011;40072;50.958;3.592;2022-07-04T02:41:42;14.57;;;3.65;;
54167;SDS011;40072;50.958;3.592;2022-07-04T02:44:08;8.32;;;3.25;;
54167;SDS011;40072;50.958;3.592;2022-07-04T02:46:34;9.02;;;3.60;;
54167;SDS011;40072;50.958;3.592;2022-07-04T02:49:00;12.63;;;3.80;;
54167;SDS011;40072;50.958;3.592;2022-07-04T02:51:26;9.98;;;4.28;;
54167;SDS011;40072;50.958;3.592;2022-07-04T02:53:52;11.73;;;3.97;;
54167;SDS011;40072;50.958;3.592;2022-07-04T02:56:18;12.90;;;4.55;;
54167;SDS011;40072;50.958;3.592;2022-07-04T02:58:43;16.42;;;4.30;;
54167;SDS011;40072;50.958;3.592;2022-07-04T03:01:09;8.25;;;4.68;;
54167;SDS011;40072;50.958;3.592;2022-07-04T03:03:37;11.65;;;4.50;;
54167;SDS011;40072;50.958;3.592;2022-07-04T03:06:04;20.27;;;5.32;;
54167;SDS011;40072;50.958;3.592;2022-07-04T03:08:31;10.90;;;4.15;;
54167;SDS011;40072;50.958;3.592;2022-07-04T03:10:57;11.05;;;4.80;;
54167;SDS011;40072;50.958;3.592;2022-07-04T03:13:22;9.20;;;4.28;;
54167;SDS011;40072;50.958;3.592;2022-07-04T03:15:49;16.90;;;4.38;;
54167;SDS011;40072;50.958;3.592;2022-07-04T03:18:15;8.50;;;4.10;;
54167;SDS011;40072;50.958;3.592;2022-07-04T03:20:41;11.27;;;4.75;;
54167;SDS011;40072;50.958;3.592;2022-07-04T03:23:06;11.85;;;4.28;;
54167;SDS011;40072;50.958;3.592;2022-07-04T03:25:32;18.05;;;4.28;;
54167;SDS011;40072;50.958;3.592;2022-07-04T03:27:58;9.20;;;4.20;;
54167;SDS011;40072;50.958;3.592;2022-07-04T03:30:23;9.55;;;3.92;;
54167;SDS011;40072;50.958;3.592;2022-07-04T03:32:49;7.05;;;3.75;;
54167;SDS011;40072;50.958;3.592;2022-07-04T03:35:15;11.38;;;4.13;;
54167;SDS011;40072;50.958;3.592;2022-07-04T03:37:40;8.63;;;3.97;;
54167;SDS011;40072;50.958;3.592;2022-07-04T03:40:06;12.45;;;3.90;;
54167;SDS011;40072;50.958;3.592;2022-07-04T03:42:32;12.32;;;3.80;;
54167;SDS011;40072;50.958;3.592;2022-07-04T03:44:58;14.00;;;3.78;;
54167;SDS011;40072;50.958;3.592;2022-07-04T03:47:23;13.95;;;3.63;;
54167;SDS011;40072;50.958;3.592;2022-07-04T03:49:50;13.48;;;4.05;;
54167;SDS011;40072;50.958;3.592;2022-07-04T03:52:15;10.63;;;4.32;;
54167;SDS011;40072;50.958;3.592;2022-07-04T03:54:41;15.40;;;3.88;;
54167;SDS011;40072;50.958;3.592;2022-07-04T03:57:07;9.27;;;3.97;;
54167;SDS011;40072;50.958;3.592;2022-07-04T03:59:32;10.55;;;3.60;;
54167;SDS011;40072;50.958;3.592;2022-07-04T04:01:58;11.05;;;3.45;;
54167;SDS011;40072;50.958;3.592;2022-07-04T04:04:23;9.95;;;2.85;;
54167;SDS011;40072;50.958;3.592;2022-07-04T04:07:08;16.40;;;3.67;;
54167;SDS011;40072;50.958;3.592;2022-07-04T04:09:33;11.00;;;4.13;;
54167;SDS011;40072;50.958;3.592;2022-07-04T04:11:59;5.88;;;3.20;;
54167;SDS011;40072;50.958;3.592;2022-07-04T04:14:24;15.68;;;4.05;;
54167;SDS011;40072;50.958;3.592;2022-07-04T04:16:52;11.65;;;3.58;;
54167;SDS011;40072;50.958;3.592;2022-07-04T04:19:18;15.52;;;3.78;;
54167;SDS011;40072;50.958;3.592;2022-07-04T04:21:44;10.05;;;4.40;;
54167;SDS011;40072;50.958;3.592;2022-07-04T04:24:10;23.85;;;4.15;;
54167;SDS011;40072;50.958;3.592;2022-07-04T04:26:35;18.95;;;3.28;;
54167;SDS011;40072;50.958;3.592;2022-07-04T04:29:01;18.48;;;3.65;;
54167;SDS011;40072;50.958;3.592;2022-07-04T04:31:27;9.70;;;3.45;;
54167;SDS011;40072;50.958;3.592;2022-07-04T04:33:53;11.43;;;3.55;;
54167;SDS011;40072;50.958;3.592;2022-07-04T04:36:18;13.10;;;3.47;;
54167;SDS011;40072;50.958;3.592;2022-07-04T04:38:44;10.95;;;3.90;;
54167;SDS011;40072;50.958;3.592;2022-07-04T04:41:10;12.35;;;3.85;;
54167;SDS011;40072;50.958;3.592;2022-07-04T04:43:36;19.13;;;3.90;;
54167;SDS011;40072;50.958;3.592;2022-07-04T04:46:02;12.65;;;3.05;;
54167;SDS011;40072;50.958;3.592;2022-07-04T04:48:27;16.55;;;4.18;;
54167;SDS011;40072;50.958;3.592;2022-07-04T04:50:53;10.10;;;3.15;;
54167;SDS011;40072;50.958;3.592;2022-07-04T04:53:18;11.93;;;3.65;;
54167;SDS011;40072;50.958;3.592;2022-07-04T04:55:47;16.67;;;3.53;;
54167;SDS011;40072;50.958;3.592;2022-07-04T04:58:13;11.40;;;4.22;;
54167;SDS011;40072;50.958;3.592;2022-07-04T05:00:38;12.70;;;4.20;;
54167;SDS011;40072;50.958;3.592;2022-07-04T05:03:04;13.77;;;3.63;;
54167;SDS011;40072;50.958;3.592;2022-07-04T05:05:30;15.98;;;3.70;;
54167;SDS011;40072;50.958;3.592;2022-07-04T05:07:55;12.80;;;3.78;;
54167;SDS011;40072;50.958;3.592;2022-07-04T05:10:21;12.95;;;3.95;;
54167;SDS011;40072;50.958;3.592;2022-07-04T05:12:47;14.30;;;3.83;;
54167;SDS011;40072;50.958;3.592;2022-07-04T05:15:13;18.40;;;4.50;;
54167;SDS011;40072;50.958;3.592;2022-07-04T05:17:39;13.85;;;4.55;;
54167;SDS011;40072;50.958;3.592;2022-07-04T05:20:04;11.30;;;4.43;;
54167;SDS011;40072;50.958;3.592;2022-07-04T05:22:30;15.52;;;3.70;;
54167;SDS011;40072;50.958;3.592;2022-07-04T05:24:56;12.02;;;4.05;;
54167;SDS011;40072;50.958;3.592;2022-07-04T05:27:22;9.70;;;3.65;;
54167;SDS011;40072;50.958;3.592;2022-07-04T05:29:47;12.32;;;4.85;;
54167;SDS011;40072;50.958;3.592;2022-07-04T05:32:13;13.27;;;4.22;;
54167;SDS011;40072;50.958;3.592;2022-07-04T05:34:38;11.65;;;4.57;;
54167;SDS011;40072;50.958;3.592;2022-07-04T05:37:04;11.65;;;4.97;;
54167;SDS011;40072;50.958;3.592;2022-07-04T05:39:30;14.32;;;4.57;;
54167;SDS011;40072;50.958;3.592;2022-07-04T05:41:55;17.52;;;5.47;;
54167;SDS011;40072;50.958;3.592;2022-07-04T05:44:21;16.88;;;5.22;;
54167;SDS011;40072;50.958;3.592;2022-07-04T05:46:48;11.80;;;4.32;;
54167;SDS011;40072;50.958;3.592;2022-07-04T05:49:13;16.05;;;5.00;;
54167;SDS011;40072;50.958;3.592;2022-07-04T05:51:39;14.60;;;5.00;;
54167;SDS011;40072;50.958;3.592;2022-07-04T05:54:04;18.67;;;5.85;;
54167;SDS011;40072;50.958;3.592;2022-07-04T05:56:30;21.13;;;6.60;;
54167;SDS011;40072;50.958;3.592;2022-07-04T05:58:56;22.08;;;6.80;;
54167;SDS011;40072;50.958;3.592;2022-07-04T06:01:21;26.38;;;8.32;;
54167;SDS011;40072;50.958;3.592;2022-07-04T06:03:47;30.98;;;10.93;;
54167;SDS011;40072;50.958;3.592;2022-07-04T06:06:13;41.28;;;12.50;;
54167;SDS011;40072;50.958;3.592;2022-07-04T06:08:39;35.65;;;12.32;;
54167;SDS011;40072;50.958;3.592;2022-07-04T06:11:04;38.60;;;11.15;;
54167;SDS011;40072;50.958;3.592;2022-07-04T06:13:30;38.28;;;13.98;;
54167;SDS011;40072;50.958;3.592;2022-07-04T06:15:56;34.78;;;12.05;;
54167;SDS011;40072;50.958;3.592;2022-07-04T06:18:21;47.63;;;12.93;;
54167;SDS011;40072;50.958;3.592;2022-07-04T06:20:47;43.65;;;14.50;;
54167;SDS011;40072;50.958;3.592;2022-07-04T06:23:12;30.88;;;12.40;;
54167;SDS011;40072;50.958;3.592;2022-07-04T06:25:38;33.28;;;12.60;;
54167;SDS011;40072;50.958;3.592;2022-07-04T06:28:04;30.73;;;12.02;;
54167;SDS011;40072;50.958;3.592;2022-07-04T06:30:30;40.40;;;12.95;;
54167;SDS011;40072;50.958;3.592;2022-07-04T06:32:56;36.33;;;13.57;;
54167;SDS011;40072;50.958;3.592;2022-07-04T06:35:29;43.08;;;13.02;;
54167;SDS011;40072;50.958;3.592;2022-07-04T06:38:12;36.60;;;14.70;;
54167;SDS011;40072;50.958;3.592;2022-07-04T06:40:40;35.38;;;13.90;;
54167;SDS011;40072;50.958;3.592;2022-07-04T06:43:06;32.80;;;13.75;;
54167;SDS011;40072;50.958;3.592;2022-07-04T06:45:32;31.95;;;12.73;;
54167;SDS011;40072;50.958;3.592;2022-07-04T06:47:59;29.92;;;12.50;;
54167;SDS011;40072;50.958;3.592;2022-07-04T06:50:25;33.35;;;12.70;;
54167;SDS011;40072;50.958;3.592;2022-07-04T06:52:50;33.92;;;12.13;;
54167;SDS011;40072;50.958;3.592;2022-07-04T06:55:16;31.02;;;12.50;;
54167;SDS011;40072;50.958;3.592;2022-07-04T06:57:42;28.05;;;11.25;;
54167;SDS011;40072;50.958;3.592;2022-07-04T07:00:08;32.08;;;11.77;;
54167;SDS011;40072;50.958;3.592;2022-07-04T07:02:35;31.45;;;11.57;;
54167;SDS011;40072;50.958;3.592;2022-07-04T07:05:01;23.83;;;10.32;;
54167;SDS011;40072;50.958;3.592;2022-07-04T07:07:28;24.85;;;10.45;;
54167;SDS011;40072;50.958;3.592;2022-07-04T07:09:54;26.33;;;11.02;;
54167;SDS011;40072;50.958;3.592;2022-07-04T07:12:20;26.35;;;11.68;;
54167;SDS011;40072;50.958;3.592;2022-07-04T07:14:47;36.75;;;11.90;;
54167;SDS011;40072;50.958;3.592;2022-07-04T07:17:14;26.58;;;10.75;;
54167;SDS011;40072;50.958;3.592;2022-07-04T07:19:41;25.60;;;11.13;;
54167;SDS011;40072;50.958;3.592;2022-07-04T07:22:08;27.45;;;10.52;;
54167;SDS011;40072;50.958;3.592;2022-07-04T07:24:34;25.15;;;10.43;;
54167;SDS011;40072;50.958;3.592;2022-07-04T07:27:00;28.27;;;11.35;;
54167;SDS011;40072;50.958;3.592;2022-07-04T07:29:25;25.23;;;12.18;;
54167;SDS011;40072;50.958;3.592;2022-07-04T07:31:51;27.20;;;11.77;;
54167;SDS011;40072;50.958;3.592;2022-07-04T07:34:17;29.48;;;13.07;;
54167;SDS011;40072;50.958;3.592;2022-07-04T07:36:43;24.13;;;12.13;;
54167;SDS011;40072;50.958;3.592;2022-07-04T07:39:08;22.45;;;10.77;;
54167;SDS011;40072;50.958;3.592;2022-07-04T07:41:34;23.73;;;11.15;;
54167;SDS011;40072;50.958;3.592;2022-07-04T07:44:00;31.25;;;12.48;;
54167;SDS011;40072;50.958;3.592;2022-07-04T07:46:26;23.65;;;10.90;;
54167;SDS011;40072;50.958;3.592;2022-07-04T07:48:51;26.63;;;11.07;;
54167;SDS011;40072;50.958;3.592;2022-07-04T07:51:17;24.10;;;10.80;;
54167;SDS011;40072;50.958;3.592;2022-07-04T07:53:43;22.33;;;10.63;;
54167;SDS011;40072;50.958;3.592;2022-07-04T07:56:08;25.02;;;10.50;;
54167;SDS011;40072;50.958;3.592;2022-07-04T07:58:34;17.30;;;8.73;;
54167;SDS011;40072;50.958;3.592;2022-07-04T08:01:00;17.73;;;9.63;;
54167;SDS011;40072;50.958;3.592;2022-07-04T08:03:28;19.92;;;8.90;;
54167;SDS011;40072;50.958;3.592;2022-07-04T08:06:13;22.33;;;8.93;;
54167;SDS011;40072;50.958;3.592;2022-07-04T08:08:40;24.38;;;9.13;;
54167;SDS011;40072;50.958;3.592;2022-07-04T08:11:09;21.88;;;9.02;;
54167;SDS011;40072;50.958;3.592;2022-07-04T08:13:35;21.48;;;9.85;;
54167;SDS011;40072;50.958;3.592;2022-07-04T08:16:02;24.45;;;9.38;;
54167;SDS011;40072;50.958;3.592;2022-07-04T08:18:28;19.85;;;8.32;;
54167;SDS011;40072;50.958;3.592;2022-07-04T08:20:54;17.55;;;7.78;;
54167;SDS011;40072;50.958;3.592;2022-07-04T08:23:19;19.67;;;7.97;;
54167;SDS011;40072;50.958;3.592;2022-07-04T08:25:45;22.58;;;8.35;;
54167;SDS011;40072;50.958;3.592;2022-07-04T08:28:11;17.02;;;7.25;;
54167;SDS011;40072;50.958;3.592;2022-07-04T08:30:36;19.42;;;6.78;;
54167;SDS011;40072;50.958;3.592;2022-07-04T08:33:02;17.77;;;6.85;;
54167;SDS011;40072;50.958;3.592;2022-07-04T08:35:28;17.30;;;7.00;;
54167;SDS011;40072;50.958;3.592;2022-07-04T08:37:54;17.33;;;6.20;;
54167;SDS011;40072;50.958;3.592;2022-07-04T08:40:24;12.95;;;4.93;;
54167;SDS011;40072;50.958;3.592;2022-07-04T08:42:51;17.33;;;6.00;;
54167;SDS011;40072;50.958;3.592;2022-07-04T08:45:18;17.23;;;6.38;;
54167;SDS011;40072;50.958;3.592;2022-07-04T08:48:04;14.90;;;5.63;;
54167;SDS011;40072;50.958;3.592;2022-07-04T08:53:08;13.02;;;4.57;;
54167;SDS011;40072;50.958;3.592;2022-07-04T08:55:36;8.75;;;4.13;;
54167;SDS011;40072;50.958;3.592;2022-07-04T08:58:23;13.63;;;4.75;;
54167;SDS011;40072;50.958;3.592;2022-07-04T09:00:55;12.13;;;4.70;;
54167;SDS011;40072;50.958;3.592;2022-07-04T09:03:24;14.90;;;5.18;;
54167;SDS011;40072;50.958;3.592;2022-07-04T09:05:51;11.32;;;4.25;;
54167;SDS011;40072;50.958;3.592;2022-07-04T09:08:17;14.70;;;3.78;;
54167;SDS011;40072;50.958;3.592;2022-07-04T09:10:43;9.48;;;3.60;;
54167;SDS011;40072;50.958;3.592;2022-07-04T09:13:09;11.55;;;4.20;;
54167;SDS011;40072;50.958;3.592;2022-07-04T09:15:36;7.70;;;3.58;;
54167;SDS011;40072;50.958;3.592;2022-07-04T09:18:02;10.23;;;3.47;;
54167;SDS011;40072;50.958;3.592;2022-07-04T09:20:30;8.25;;;3.05;;
54167;SDS011;40072;50.958;3.592;2022-07-04T09:22:57;7.47;;;2.90;;
54167;SDS011;40072;50.958;3.592;2022-07-04T09:25:23;9.25;;;2.65;;
54167;SDS011;40072;50.958;3.592;2022-07-04T09:27:54;9.40;;;2.78;;
54167;SDS011;40072;50.958;3.592;2022-07-04T09:30:22;6.70;;;2.60;;
54167;SDS011;40072;50.958;3.592;2022-07-04T09:32:50;9.85;;;2.88;;
54167;SDS011;40072;50.958;3.592;2022-07-04T09:35:25;11.20;;;2.65;;
54167;SDS011;40072;50.958;3.592;2022-07-04T09:37:54;5.45;;;2.55;;
54167;SDS011;40072;50.958;3.592;2022-07-04T09:42:58;10.35;;;2.08;;
54167;SDS011;40072;50.958;3.592;2022-07-04T09:45:26;6.90;;;2.28;;
54167;SDS011;40072;50.958;3.592;2022-07-04T09:47:54;8.80;;;2.40;;
54167;SDS011;40072;50.958;3.592;2022-07-04T09:50:21;9.10;;;2.90;;
54167;SDS011;40072;50.958;3.592;2022-07-04T09:52:58;8.63;;;2.72;;
54167;SDS011;40072;50.958;3.592;2022-07-04T09:55:32;9.43;;;2.35;;
54167;SDS011;40072;50.958;3.592;2022-07-04T09:58:06;10.45;;;2.70;;
54167;SDS011;40072;50.958;3.592;2022-07-04T10:00:33;8.68;;;2.22;;
54167;SDS011;40072;50.958;3.592;2022-07-04T10:03:20;8.85;;;2.53;;
54167;SDS011;40072;50.958;3.592;2022-07-04T10:05:46;14.52;;;3.00;;
54167;SDS011;40072;50.958;3.592;2022-07-04T10:08:26;7.40;;;2.03;;
54167;SDS011;40072;50.958;3.592;2022-07-04T10:10:56;10.40;;;2.45;;
54167;SDS011;40072;50.958;3.592;2022-07-04T10:13:22;8.88;;;2.55;;
54167;SDS011;40072;50.958;3.592;2022-07-04T10:15:48;10.98;;;2.72;;
54167;SDS011;40072;50.958;3.592;2022-07-04T10:18:14;11.68;;;2.55;;
54167;SDS011;40072;50.958;3.592;2022-07-04T10:20:43;7.82;;;2.28;;
54167;SDS011;40072;50.958;3.592;2022-07-04T10:23:10;8.80;;;2.38;;
54167;SDS011;40072;50.958;3.592;2022-07-04T10:25:36;7.25;;;2.20;;
54167;SDS011;40072;50.958;3.592;2022-07-04T10:28:02;8.73;;;2.30;;
54167;SDS011;40072;50.958;3.592;2022-07-04T10:30:29;7.07;;;2.17;;
54167;SDS011;40072;50.958;3.592;2022-07-04T10:33:04;7.57;;;2.78;;
54167;SDS011;40072;50.958;3.592;2022-07-04T10:35:48;12.57;;;2.58;;
54167;SDS011;40072;50.958;3.592;2022-07-04T10:38:28;8.07;;;2.30;;
54167;SDS011;40072;50.958;3.592;2022-07-04T10:41:05;7.10;;;2.08;;
54167;SDS011;40072;50.958;3.592;2022-07-04T10:54:21;8.13;;;2.15;;
54167;SDS011;40072;50.958;3.592;2022-07-04T10:56:53;9.20;;;2.30;;
54167;SDS011;40072;50.958;3.592;2022-07-04T10:59:24;6.82;;;2.42;;
54167;SDS011;40072;50.958;3.592;2022-07-04T11:02:20;12.70;;;2.17;;
54167;SDS011;40072;50.958;3.592;2022-07-04T11:07:54;7.85;;;2.17;;
54167;SDS011;40072;50.958;3.592;2022-07-04T11:17:51;11.73;;;2.10;;
54167;SDS011;40072;50.958;3.592;2022-07-04T11:20:18;8.02;;;2.20;;
54167;SDS011;40072;50.958;3.592;2022-07-04T11:22:44;8.07;;;1.90;;
54167;SDS011;40072;50.958;3.592;2022-07-04T11:25:10;5.78;;;2.30;;
54167;SDS011;40072;50.958;3.592;2022-07-04T11:27:37;9.20;;;2.08;;
54167;SDS011;40072;50.958;3.592;2022-07-04T11:30:03;7.20;;;2.20;;
54167;SDS011;40072;50.958;3.592;2022-07-04T11:32:30;9.25;;;1.95;;
54167;SDS011;40072;50.958;3.592;2022-07-04T11:34:57;7.20;;;2.35;;
54167;SDS011;40072;50.958;3.592;2022-07-04T11:37:22;7.15;;;2.10;;
54167;SDS011;40072;50.958;3.592;2022-07-04T11:39:52;5.85;;;1.90;;
54167;SDS011;40072;50.958;3.592;2022-07-04T11:42:39;6.72;;;2.03;;
54167;SDS011;40072;50.958;3.592;2022-07-04T11:45:23;6.82;;;2.25;;
54167;SDS011;40072;50.958;3.592;2022-07-04T11:47:49;6.85;;;2.25;;
54167;SDS011;40072;50.958;3.592;2022-07-04T11:50:15;6.13;;;1.80;;
54167;SDS011;40072;50.958;3.592;2022-07-04T11:52:48;6.05;;;1.90;;
54167;SDS011;40072;50.958;3.592;2022-07-04T11:55:18;8.82;;;1.90;;
54167;SDS011;40072;50.958;3.592;2022-07-04T11:57:50;4.20;;;1.80;;
54167;SDS011;40072;50.958;3.592;2022-07-04T12:00:20;3.95;;;1.63;;
54167;SDS011;40072;50.958;3.592;2022-07-04T12:02:50;6.75;;;1.98;;
54167;SDS011;40072;50.958;3.592;2022-07-04T12:05:16;6.13;;;1.50;;
54167;SDS011;40072;50.958;3.592;2022-07-04T12:07:43;6.20;;;1.70;;
54167;SDS011;40072;50.958;3.592;2022-07-04T12:10:23;5.07;;;1.88;;
54167;SDS011;40072;50.958;3.592;2022-07-04T12:15:41;7.10;;;1.87;;
54167;SDS011;40072;50.958;3.592;2022-07-04T12:18:15;5.13;;;1.75;;
54167;SDS011;40072;50.958;3.592;2022-07-04T12:20:45;6.03;;;1.90;;
54167;SDS011;40072;50.958;3.592;2022-07-04T12:23:12;3.35;;;1.20;;
54167;SDS011;40072;50.958;3.592;2022-07-04T12:25:38;3.47;;;1.42;;
54167;SDS011;40072;50.958;3.592;2022-07-04T12:28:05;8.20;;;1.40;;
54167;SDS011;40072;50.958;3.592;2022-07-04T12:30:39;5.85;;;1.65;;
54167;SDS011;40072;50.958;3.592;2022-07-04T12:33:17;3.08;;;1.38;;
54167;SDS011;40072;50.958;3.592;2022-07-04T12:35:57;4.78;;;1.67;;
54167;SDS011;40072;50.958;3.592;2022-07-04T12:38:37;7.22;;;1.73;;
54167;SDS011;40072;50.958;3.592;2022-07-04T12:41:15;6.55;;;2.15;;
54167;SDS011;40072;50.958;3.592;2022-07-04T12:46:39;8.45;;;1.60;;
54167;SDS011;40072;50.958;3.592;2022-07-04T12:48:59;5.03;;;1.55;;
54167;SDS011;40072;50.958;3.592;2022-07-04T12:51:29;4.13;;;1.15;;
54167;SDS011;40072;50.958;3.592;2022-07-04T12:53:56;6.20;;;1.80;;
54167;SDS011;40072;50.958;3.592;2022-07-04T12:56:33;5.75;;;1.27;;
54167;SDS011;40072;50.958;3.592;2022-07-04T12:59:16;3.67;;;1.27;;
54167;SDS011;40072;50.958;3.592;2022-07-04T13:01:45;3.90;;;1.48;;
54167;SDS011;40072;50.958;3.592;2022-07-04T13:04:12;4.05;;;1.33;;
54167;SDS011;40072;50.958;3.592;2022-07-04T13:06:38;6.85;;;1.30;;
54167;SDS011;40072;50.958;3.592;2022-07-04T13:09:05;2.08;;;1.10;;
54167;SDS011;40072;50.958;3.592;2022-07-04T13:11:34;8.65;;;1.50;;
54167;SDS011;40072;50.958;3.592;2022-07-04T13:14:19;3.70;;;1.30;;
54167;SDS011;40072;50.958;3.592;2022-07-04T13:16:45;3.72;;;1.15;;
54167;SDS011;40072;50.958;3.592;2022-07-04T13:19:10;2.90;;;1.10;;
54167;SDS011;40072;50.958;3.592;2022-07-04T13:21:36;2.42;;;1.00;;
54167;SDS011;40072;50.958;3.592;2022-07-04T13:24:02;9.05;;;1.45;;
54167;SDS011;40072;50.958;3.592;2022-07-04T13:26:28;6.63;;;1.10;;
54167;SDS011;40072;50.958;3.592;2022-07-04T13:28:55;4.10;;;1.20;;
54167;SDS011;40072;50.958;3.592;2022-07-04T13:31:21;3.97;;;1.55;;
54167;SDS011;40072;50.958;3.592;2022-07-04T13:33:47;6.53;;;2.08;;
54167;SDS011;40072;50.958;3.592;2022-07-04T13:36:13;6.65;;;1.83;;
54167;SDS011;40072;50.958;3.592;2022-07-04T13:38:39;5.45;;;1.58;;
54167;SDS011;40072;50.958;3.592;2022-07-04T13:41:05;3.28;;;1.58;;
54167;SDS011;40072;50.958;3.592;2022-07-04T13:43:31;6.65;;;1.55;;
54167;SDS011;40072;50.958;3.592;2022-07-04T13:45:57;4.68;;;1.23;;
54167;SDS011;40072;50.958;3.592;2022-07-04T13:48:23;2.85;;;1.20;;
54167;SDS011;40072;50.958;3.592;2022-07-04T13:50:49;7.00;;;1.40;;
54167;SDS011;40072;50.958;3.592;2022-07-04T13:53:15;8.98;;;1.45;;
54167;SDS011;40072;50.958;3.592;2022-07-04T13:55:41;5.47;;;1.52;;
54167;SDS011;40072;50.958;3.592;2022-07-04T13:58:09;6.00;;;1.30;;
54167;SDS011;40072;50.958;3.592;2022-07-04T14:00:35;10.05;;;1.30;;
54167;SDS011;40072;50.958;3.592;2022-07-04T14:03:02;4.78;;;1.20;;
54167;SDS011;40072;50.958;3.592;2022-07-04T14:05:28;3.63;;;1.50;;
54167;SDS011;40072;50.958;3.592;2022-07-04T14:07:54;4.35;;;1.35;;
54167;SDS011;40072;50.958;3.592;2022-07-04T14:10:20;2.83;;;1.30;;
54167;SDS011;40072;50.958;3.592;2022-07-04T14:12:46;8.20;;;1.33;;
54167;SDS011;40072;50.958;3.592;2022-07-04T14:15:12;5.95;;;1.17;;
54167;SDS011;40072;50.958;3.592;2022-07-04T14:17:38;8.13;;;1.80;;
54167;SDS011;40072;50.958;3.592;2022-07-04T14:20:04;5.13;;;1.60;;
54167;SDS011;40072;50.958;3.592;2022-07-04T14:22:37;8.10;;;1.45;;
54167;SDS011;40072;50.958;3.592;2022-07-04T14:25:04;3.15;;;1.33;;
54167;SDS011;40072;50.958;3.592;2022-07-04T14:27:31;1.83;;;1.08;;
54167;SDS011;40072;50.958;3.592;2022-07-04T14:29:56;6.32;;;1.73;;
54167;SDS011;40072;50.958;3.592;2022-07-04T14:32:22;3.25;;;1.30;;
54167;SDS011;40072;50.958;3.592;2022-07-04T14:34:48;5.53;;;1.35;;
54167;SDS011;40072;50.958;3.592;2022-07-04T14:37:13;6.85;;;1.20;;
54167;SDS011;40072;50.958;3.592;2022-07-04T14:39:39;7.35;;;1.45;;
54167;SDS011;40072;50.958;3.592;2022-07-04T14:42:05;7.05;;;1.90;;
54167;SDS011;40072;50.958;3.592;2022-07-04T14:44:30;3.47;;;1.40;;
54167;SDS011;40072;50.958;3.592;2022-07-04T14:47:00;3.28;;;1.30;;
54167;SDS011;40072;50.958;3.592;2022-07-04T14:49:26;2.88;;;1.20;;
54167;SDS011;40072;50.958;3.592;2022-07-04T14:51:52;4.60;;;1.63;;
54167;SDS011;40072;50.958;3.592;2022-07-04T14:54:18;5.88;;;1.80;;
54167;SDS011;40072;50.958;3.592;2022-07-04T14:56:43;4.03;;;1.25;;
54167;SDS011;40072;50.958;3.592;2022-07-04T14:59:09;6.47;;;1.40;;
54167;SDS011;40072;50.958;3.592;2022-07-04T15:01:35;3.88;;;1.65;;
54167;SDS011;40072;50.958;3.592;2022-07-04T15:04:00;7.40;;;1.73;;
54167;SDS011;40072;50.958;3.592;2022-07-04T15:06:26;6.38;;;1.45;;
54167;SDS011;40072;50.958;3.592;2022-07-04T15:08:51;6.57;;;1.70;;
54167;SDS011;40072;50.958;3.592;2022-07-04T15:11:18;5.03;;;1.70;;
54167;SDS011;40072;50.958;3.592;2022-07-04T15:13:43;6.40;;;1.60;;